createdAt,value
2017-10-20T00:00:19.858Z,0
2017-10-20T00:01:19.518Z,0
2017-10-20T00:02:19.476Z,0
2017-10-20T00:03:19.465Z,0
2017-10-20T00:04:19.758Z,0
2017-10-20T00:05:19.730Z,0
2017-10-20T00:06:19.729Z,0
2017-10-20T00:07:19.375Z,0
2017-10-20T00:08:19.670Z,0
2017-10-20T00:09:19.326Z,0
2017-10-20T00:10:19.648Z,0
2017-10-20T00:11:19.609Z,0
2017-10-20T00:12:19.597Z,0
2017-10-20T00:13:19.571Z,0
2017-10-20T00:14:19.539Z,0
2017-10-20T00:15:19.519Z,0
2017-10-20T00:16:19.501Z,0
2017-10-20T00:17:19.494Z,0
2017-10-20T00:18:19.806Z,0
2017-10-20T00:19:19.433Z,0
2017-10-20T00:20:18.803Z,0
2017-10-20T00:21:19.420Z,0
2017-10-20T00:22:19.037Z,0
2017-10-20T00:23:19.351Z,0
2017-10-20T00:24:19.009Z,0
2017-10-20T00:25:19.307Z,0
2017-10-20T00:26:19.274Z,0
2017-10-20T00:27:19.272Z,0
2017-10-20T00:28:19.235Z,0
2017-10-20T00:29:19.209Z,0
2017-10-20T00:30:19.212Z,0
2017-10-20T00:31:18.545Z,0
2017-10-20T00:32:19.147Z,0
2017-10-20T00:33:18.834Z,0
2017-10-20T00:34:19.111Z,0
2017-10-20T00:35:18.762Z,0
2017-10-20T00:36:19.066Z,0
2017-10-20T00:37:18.726Z,0
2017-10-20T00:38:19.052Z,0
2017-10-20T00:39:19.007Z,0
2017-10-20T00:40:18.978Z,0
2017-10-20T00:41:18.634Z,0
2017-10-20T00:42:18.937Z,0
2017-10-20T00:43:18.617Z,0
2017-10-20T00:44:18.904Z,0
2017-10-20T00:45:18.878Z,0
2017-10-20T00:46:18.869Z,0
2017-10-20T00:47:18.841Z,0
2017-10-20T00:48:18.483Z,0
2017-10-20T00:49:18.803Z,0
2017-10-20T00:50:18.766Z,0
2017-10-20T00:51:18.739Z,0
2017-10-20T00:52:18.712Z,0
2017-10-20T00:53:18.364Z,0
2017-10-20T00:54:18.671Z,0
2017-10-20T00:55:18.675Z,0
2017-10-20T00:56:18.632Z,0
2017-10-20T00:57:18.610Z,0
2017-10-20T00:58:20.452Z,0
2017-10-20T00:59:18.560Z,0
2017-10-20T01:00:18.222Z,0
2017-10-20T01:01:18.522Z,0
2017-10-20T01:02:18.490Z,0
2017-10-20T01:03:18.465Z,0
2017-10-20T01:04:18.441Z,0
2017-10-20T01:05:18.115Z,0
2017-10-20T01:06:18.416Z,0
2017-10-20T01:07:18.403Z,0
2017-10-20T01:08:18.360Z,0
2017-10-20T01:09:18.338Z,0
2017-10-20T01:10:18.321Z,0
2017-10-20T01:11:18.320Z,0
2017-10-20T01:12:18.279Z,0
2017-10-20T01:13:18.253Z,0
2017-10-20T01:14:17.924Z,0
2017-10-20T01:15:18.217Z,0
2017-10-20T01:16:18.200Z,0
2017-10-20T01:17:18.189Z,0
2017-10-20T01:18:18.165Z,0
2017-10-20T01:19:18.124Z,0
2017-10-20T01:20:18.133Z,0
2017-10-20T01:21:18.084Z,0
2017-10-20T01:22:17.436Z,0
2017-10-20T01:23:18.045Z,0
2017-10-20T01:24:18.030Z,0
2017-10-20T01:25:17.991Z,0
2017-10-20T01:26:17.970Z,0
2017-10-20T01:27:17.950Z,0
2017-10-20T01:28:17.929Z,0
2017-10-20T01:29:17.583Z,0
2017-10-20T01:30:17.887Z,0
2017-10-20T01:31:17.550Z,0
2017-10-20T01:32:17.526Z,0
2017-10-20T01:33:17.813Z,0
2017-10-20T01:34:17.798Z,0
2017-10-20T01:35:17.795Z,0
2017-10-20T01:36:17.743Z,0
2017-10-20T01:37:17.751Z,0
2017-10-20T01:38:17.711Z,0
2017-10-20T01:39:17.708Z,0
2017-10-20T01:40:17.697Z,0
2017-10-20T01:41:17.652Z,0
2017-10-20T01:42:17.621Z,0
2017-10-20T01:43:17.611Z,0
2017-10-20T01:44:17.591Z,0
2017-10-20T01:45:17.559Z,0
2017-10-20T01:46:17.534Z,0
2017-10-20T01:47:17.516Z,0
2017-10-20T01:48:16.857Z,0
2017-10-20T01:49:17.153Z,0
2017-10-20T01:50:17.470Z,0
2017-10-20T01:51:17.423Z,0
2017-10-20T01:52:17.404Z,0
2017-10-20T01:53:17.375Z,0
2017-10-20T01:54:17.037Z,0
2017-10-20T01:55:17.343Z,0
2017-10-20T01:56:16.996Z,0
2017-10-20T01:57:17.287Z,0
2017-10-20T01:58:16.957Z,0
2017-10-20T01:59:16.929Z,0
2017-10-20T02:00:17.261Z,0
2017-10-20T02:01:17.206Z,0
2017-10-20T02:02:17.182Z,0
2017-10-20T02:03:17.166Z,0
2017-10-20T02:04:17.164Z,0
2017-10-20T02:05:17.504Z,0
2017-10-20T02:06:18.593Z,0
2017-10-20T02:07:17.170Z,0
2017-10-20T02:08:17.352Z,0
2017-10-20T02:09:16.717Z,0
2017-10-20T02:10:17.012Z,0
2017-10-20T02:11:16.670Z,0
2017-10-20T02:12:16.962Z,0
2017-10-20T02:13:16.980Z,0
2017-10-20T02:14:16.919Z,0
2017-10-20T02:15:16.903Z,0
2017-10-20T02:16:16.877Z,0
2017-10-20T02:17:16.558Z,0
2017-10-20T02:18:16.841Z,0
2017-10-20T02:19:16.811Z,0
2017-10-20T02:20:16.798Z,0
2017-10-20T02:21:16.769Z,0
2017-10-20T02:22:16.799Z,0
2017-10-20T02:23:16.727Z,0
2017-10-20T02:24:16.699Z,0
2017-10-20T02:25:16.698Z,0
2017-10-20T02:26:16.660Z,0
2017-10-20T02:27:16.640Z,0
2017-10-20T02:28:16.611Z,0
2017-10-20T02:29:16.608Z,0
2017-10-20T02:30:16.579Z,0
2017-10-20T02:31:16.571Z,0
2017-10-20T02:32:16.533Z,0
2017-10-20T02:33:16.514Z,0
2017-10-20T02:34:16.500Z,0
2017-10-20T02:35:16.470Z,0
2017-10-20T02:36:16.454Z,0
2017-10-20T02:37:16.413Z,0
2017-10-20T02:38:16.401Z,0
2017-10-20T02:39:16.379Z,0
2017-10-20T02:40:16.362Z,0
2017-10-20T02:41:16.039Z,0
2017-10-20T02:42:15.994Z,0
2017-10-20T02:43:15.994Z,0
2017-10-20T02:44:16.271Z,0
2017-10-20T02:45:16.250Z,0
2017-10-20T02:46:16.227Z,0
2017-10-20T02:47:16.205Z,0
2017-10-20T02:48:16.232Z,0
2017-10-20T02:49:16.167Z,0
2017-10-20T02:50:16.146Z,0
2017-10-20T02:51:16.118Z,0
2017-10-20T02:52:15.773Z,0
2017-10-20T02:53:16.087Z,0
2017-10-20T02:54:16.054Z,0
2017-10-20T02:55:16.035Z,0
2017-10-20T02:56:16.033Z,0
2017-10-20T02:57:15.991Z,0
2017-10-20T02:58:15.970Z,0
2017-10-20T02:59:15.951Z,0
2017-10-20T03:00:15.928Z,0
2017-10-20T03:01:15.592Z,0
2017-10-20T03:02:15.874Z,0
2017-10-20T03:03:15.870Z,0
2017-10-20T03:04:15.834Z,0
2017-10-20T03:05:15.832Z,0
2017-10-20T03:06:15.787Z,0
2017-10-20T03:07:15.775Z,0
2017-10-20T03:08:15.439Z,0
2017-10-20T03:09:15.725Z,0
2017-10-20T03:10:15.714Z,0
2017-10-20T03:11:15.687Z,0
2017-10-20T03:12:15.663Z,0
2017-10-20T03:13:15.646Z,0
2017-10-20T03:14:15.612Z,0
2017-10-20T03:15:15.595Z,0
2017-10-20T03:16:15.268Z,0
2017-10-20T03:17:15.548Z,0
2017-10-20T03:18:15.533Z,0
2017-10-20T03:19:15.506Z,0
2017-10-20T03:20:15.479Z,0
2017-10-20T03:21:15.448Z,0
2017-10-20T03:22:15.452Z,0
2017-10-20T03:23:15.419Z,0
2017-10-20T03:24:15.412Z,0
2017-10-20T03:25:15.378Z,0
2017-10-20T03:26:15.351Z,0
2017-10-20T03:27:15.014Z,0
2017-10-20T03:28:15.336Z,0
2017-10-20T03:29:14.966Z,0
2017-10-20T03:30:15.284Z,0
2017-10-20T03:31:15.249Z,0
2017-10-20T03:32:15.228Z,0
2017-10-20T03:33:14.888Z,0
2017-10-20T03:34:15.180Z,0
2017-10-20T03:35:15.164Z,0
2017-10-20T03:36:15.132Z,0
2017-10-20T03:37:15.114Z,0
2017-10-20T03:38:15.094Z,0
2017-10-20T03:39:14.430Z,0
2017-10-20T03:40:15.319Z,0
2017-10-20T03:41:15.025Z,0
2017-10-20T03:42:14.997Z,0
2017-10-20T03:43:14.661Z,0
2017-10-20T03:44:14.640Z,0
2017-10-20T03:45:14.936Z,0
2017-10-20T03:46:14.932Z,0
2017-10-20T03:47:14.570Z,0
2017-10-20T03:48:14.548Z,0
2017-10-20T03:49:14.869Z,0
2017-10-20T03:50:14.517Z,0
2017-10-20T03:51:14.813Z,0
2017-10-20T03:52:14.459Z,0
2017-10-20T03:53:14.766Z,0
2017-10-20T03:54:14.734Z,0
2017-10-20T03:55:14.714Z,0
2017-10-20T03:56:14.695Z,0
2017-10-20T03:57:14.678Z,0
2017-10-20T03:58:14.648Z,0
2017-10-20T03:59:14.651Z,0
2017-10-20T04:00:14.606Z,0
2017-10-20T04:01:14.604Z,0
2017-10-20T04:02:14.579Z,0
2017-10-20T04:03:14.544Z,0
2017-10-20T04:04:14.528Z,0
2017-10-20T04:05:14.492Z,0
2017-10-20T04:06:14.482Z,0
2017-10-20T04:07:14.446Z,0
2017-10-20T04:08:14.429Z,0
2017-10-20T04:09:14.087Z,0
2017-10-20T04:10:14.394Z,0
2017-10-20T04:11:14.373Z,0
2017-10-20T04:12:14.343Z,0
2017-10-20T04:13:14.318Z,0
2017-10-20T04:14:14.297Z,0
2017-10-20T04:15:14.278Z,0
2017-10-20T04:16:14.260Z,0
2017-10-20T04:17:13.917Z,0
2017-10-20T04:18:14.211Z,0
2017-10-20T04:19:14.185Z,0
2017-10-20T04:20:14.161Z,0
2017-10-20T04:21:13.820Z,0
2017-10-20T04:22:14.131Z,0
2017-10-20T04:23:14.108Z,0
2017-10-20T04:24:14.072Z,0
2017-10-20T04:25:14.061Z,0
2017-10-20T04:26:14.030Z,0
2017-10-20T04:27:14.004Z,0
2017-10-20T04:28:13.674Z,0
2017-10-20T04:29:13.975Z,0
2017-10-20T04:30:13.940Z,0
2017-10-20T04:31:13.920Z,0
2017-10-20T04:32:13.900Z,0
2017-10-20T04:33:13.880Z,0
2017-10-20T04:34:13.859Z,0
2017-10-20T04:35:13.849Z,0
2017-10-20T04:36:13.806Z,0
2017-10-20T04:37:13.787Z,0
2017-10-20T04:38:13.767Z,0
2017-10-20T04:39:13.738Z,0
2017-10-20T04:40:13.715Z,0
2017-10-20T04:41:13.710Z,0
2017-10-20T04:42:13.679Z,0
2017-10-20T04:43:13.663Z,0
2017-10-20T04:44:13.639Z,0
2017-10-20T04:45:13.645Z,0
2017-10-20T04:46:13.740Z,0
2017-10-20T04:47:13.781Z,0
2017-10-20T04:48:13.225Z,0
2017-10-20T04:49:13.198Z,0
2017-10-20T04:50:13.508Z,0
2017-10-20T04:51:13.475Z,0
2017-10-20T04:52:13.470Z,0
2017-10-20T04:53:13.451Z,0
2017-10-20T04:54:13.414Z,0
2017-10-20T04:55:13.426Z,0
2017-10-20T04:56:12.731Z,0
2017-10-20T04:57:13.342Z,0
2017-10-20T04:58:13.346Z,0
2017-10-20T04:59:13.310Z,0
2017-10-20T05:00:13.281Z,0
2017-10-20T05:01:13.267Z,0
2017-10-20T05:02:13.242Z,0
2017-10-20T05:03:13.227Z,0
2017-10-20T05:04:13.198Z,0
2017-10-20T05:05:13.177Z,0
2017-10-20T05:06:13.151Z,0
2017-10-20T05:07:12.806Z,0
2017-10-20T05:08:13.113Z,0
2017-10-20T05:09:13.085Z,0
2017-10-20T05:10:13.060Z,0
2017-10-20T05:11:12.723Z,0
2017-10-20T05:12:13.009Z,0
2017-10-20T05:13:12.992Z,0
2017-10-20T05:14:12.980Z,0
2017-10-20T05:15:12.965Z,0
2017-10-20T05:16:12.613Z,0
2017-10-20T05:17:12.923Z,0
2017-10-20T05:18:12.918Z,0
2017-10-20T05:19:12.874Z,0
2017-10-20T05:20:12.838Z,0
2017-10-20T05:21:12.838Z,0
2017-10-20T05:22:12.816Z,0
2017-10-20T05:23:12.779Z,0
2017-10-20T05:24:13.117Z,0
2017-10-20T05:25:12.734Z,0
2017-10-20T05:26:12.715Z,0
2017-10-20T05:27:12.692Z,0
2017-10-20T05:28:12.354Z,0
2017-10-20T05:29:12.639Z,0
2017-10-20T05:30:12.630Z,0
2017-10-20T05:31:12.610Z,0
2017-10-20T05:32:12.583Z,0
2017-10-20T05:33:12.558Z,0
2017-10-20T05:34:12.545Z,0
2017-10-20T05:35:12.193Z,0
2017-10-20T05:36:12.495Z,0
2017-10-20T05:37:12.478Z,0
2017-10-20T05:38:12.456Z,0
2017-10-20T05:39:12.429Z,0
2017-10-20T05:40:12.404Z,0
2017-10-20T05:41:12.398Z,0
2017-10-20T05:42:11.831Z,0
2017-10-20T05:43:12.270Z,0
2017-10-20T05:44:12.334Z,0
2017-10-20T05:45:12.298Z,0
2017-10-20T05:46:12.298Z,0
2017-10-20T05:47:12.254Z,0
2017-10-20T05:48:12.226Z,0
2017-10-20T05:49:12.233Z,0
2017-10-20T05:50:12.179Z,0
2017-10-20T05:51:12.190Z,0
2017-10-20T05:52:12.139Z,0
2017-10-20T05:53:11.812Z,0
2017-10-20T05:54:11.779Z,0
2017-10-20T05:55:11.751Z,0
2017-10-20T05:56:11.745Z,0
2017-10-20T05:57:11.723Z,0
2017-10-20T05:58:12.034Z,0
2017-10-20T05:59:11.991Z,0
2017-10-20T06:00:11.981Z,0
2017-10-20T06:01:11.944Z,0
2017-10-20T06:02:11.923Z,0
2017-10-20T06:03:11.924Z,0
2017-10-20T06:04:11.877Z,0
2017-10-20T06:05:11.861Z,0
2017-10-20T06:06:11.830Z,0
2017-10-20T06:07:11.813Z,0
2017-10-20T06:08:11.796Z,0
2017-10-20T06:09:11.765Z,0
2017-10-20T06:10:11.743Z,0
2017-10-20T06:11:11.723Z,0
2017-10-20T06:12:11.703Z,0
2017-10-20T06:13:11.683Z,0
2017-10-20T06:14:12.005Z,0
2017-10-20T06:15:11.312Z,0
2017-10-20T06:16:11.604Z,0
2017-10-20T06:17:11.587Z,0
2017-10-20T06:18:11.578Z,0
2017-10-20T06:19:11.544Z,0
2017-10-20T06:20:11.881Z,0
2017-10-20T06:21:11.501Z,5
2017-10-20T06:22:11.477Z,5
2017-10-20T06:23:11.150Z,5
2017-10-20T06:24:11.114Z,5
2017-10-20T06:25:11.409Z,5
2017-10-20T06:26:11.384Z,5
2017-10-20T06:27:11.053Z,5
2017-10-20T06:28:11.363Z,5
2017-10-20T06:29:11.326Z,10
2017-10-20T06:30:11.316Z,10
2017-10-20T06:31:11.285Z,5
2017-10-20T06:32:11.267Z,5
2017-10-20T06:33:10.918Z,5
2017-10-20T06:34:11.214Z,10
2017-10-20T06:35:11.183Z,10
2017-10-20T06:36:11.164Z,10
2017-10-20T06:37:11.310Z,10
2017-10-20T06:38:11.136Z,10
2017-10-20T06:39:11.088Z,10
2017-10-20T06:40:11.075Z,10
2017-10-20T06:41:11.082Z,5
2017-10-20T06:42:11.033Z,5
2017-10-20T06:43:11.356Z,5
2017-10-20T06:44:10.987Z,5
2017-10-20T06:45:11.315Z,5
2017-10-20T06:46:10.620Z,5
2017-10-20T06:47:10.937Z,5
2017-10-20T06:48:10.897Z,5
2017-10-20T06:49:10.896Z,5
2017-10-20T06:50:10.849Z,5
2017-10-20T06:51:10.830Z,5
2017-10-20T06:52:10.814Z,5
2017-10-20T06:53:10.806Z,5
2017-10-20T06:54:10.765Z,5
2017-10-20T06:55:10.762Z,5
2017-10-20T06:56:10.714Z,5
2017-10-20T06:57:10.730Z,5
2017-10-20T06:58:10.678Z,5
2017-10-20T06:59:10.648Z,5
2017-10-20T07:00:10.629Z,5
2017-10-20T07:01:10.606Z,5
2017-10-20T07:02:10.590Z,5
2017-10-20T07:03:10.577Z,5
2017-10-20T07:04:10.898Z,0
2017-10-20T07:05:10.519Z,0
2017-10-20T07:06:10.507Z,0
2017-10-20T07:07:10.468Z,0
2017-10-20T07:08:10.451Z,0
2017-10-20T07:09:10.424Z,0
2017-10-20T07:10:10.412Z,0
2017-10-20T07:11:10.383Z,5
2017-10-20T07:12:10.718Z,5
2017-10-20T07:13:10.349Z,5
2017-10-20T07:14:10.321Z,5
2017-10-20T07:15:10.286Z,5
2017-10-20T07:16:10.265Z,5
2017-10-20T07:17:09.924Z,5
2017-10-20T07:18:10.251Z,5
2017-10-20T07:19:10.227Z,5
2017-10-20T07:20:09.861Z,5
2017-10-20T07:21:10.180Z,5
2017-10-20T07:22:10.145Z,10
2017-10-20T07:23:10.118Z,10
2017-10-20T07:24:10.111Z,15
2017-10-20T07:25:10.068Z,15
2017-10-20T07:26:10.082Z,20
2017-10-20T07:27:10.019Z,20
2017-10-20T07:28:10.003Z,30
2017-10-20T07:29:09.979Z,35
2017-10-20T07:30:09.960Z,40
2017-10-20T07:31:09.937Z,40
2017-10-20T07:32:09.906Z,45
2017-10-20T07:33:09.898Z,45
2017-10-20T07:34:10.219Z,50
2017-10-20T07:35:09.861Z,55
2017-10-20T07:36:09.821Z,60
2017-10-20T07:37:09.814Z,55
2017-10-20T07:38:09.795Z,55
2017-10-20T07:39:09.749Z,60
2017-10-20T07:40:09.726Z,65
2017-10-20T07:41:09.735Z,70
2017-10-20T07:42:09.696Z,80
2017-10-20T07:43:09.672Z,80
2017-10-20T07:44:09.643Z,85
2017-10-20T07:45:09.636Z,90
2017-10-20T07:46:09.595Z,100
2017-10-20T07:47:09.605Z,110
2017-10-20T07:48:09.556Z,115
2017-10-20T07:49:09.209Z,120
2017-10-20T07:50:09.514Z,120
2017-10-20T07:51:09.474Z,120
2017-10-20T07:52:09.153Z,125
2017-10-20T07:53:08.804Z,120
2017-10-20T07:54:09.443Z,110
2017-10-20T07:55:09.083Z,105
2017-10-20T07:56:09.389Z,95
2017-10-20T07:57:09.025Z,90
2017-10-20T07:58:09.330Z,90
2017-10-20T07:59:09.328Z,100
2017-10-20T08:00:09.294Z,110
2017-10-20T08:01:08.950Z,125
2017-10-20T08:02:08.946Z,145
2017-10-20T08:03:09.208Z,160
2017-10-20T08:04:09.202Z,175
2017-10-20T08:05:09.186Z,190
2017-10-20T08:06:09.147Z,195
2017-10-20T08:07:08.823Z,195
2017-10-20T08:08:08.802Z,185
2017-10-20T08:09:08.763Z,175
2017-10-20T08:10:09.074Z,165
2017-10-20T08:11:09.051Z,180
2017-10-20T08:12:09.060Z,180
2017-10-20T08:13:09.020Z,165
2017-10-20T08:14:08.978Z,150
2017-10-20T08:15:08.960Z,140
2017-10-20T08:16:08.940Z,130
2017-10-20T08:17:08.906Z,120
2017-10-20T08:18:08.587Z,125
2017-10-20T08:19:08.586Z,135
2017-10-20T08:20:08.853Z,155
2017-10-20T08:21:08.835Z,180
2017-10-20T08:22:08.805Z,210
2017-10-20T08:23:08.459Z,240
2017-10-20T08:24:08.777Z,240
2017-10-20T08:25:08.091Z,220
2017-10-20T08:26:08.716Z,205
2017-10-20T08:27:08.696Z,200
2017-10-20T08:28:08.670Z,185
2017-10-20T08:29:08.656Z,170
2017-10-20T08:30:08.305Z,155
2017-10-20T08:31:08.622Z,135
2017-10-20T08:32:08.613Z,125
2017-10-20T08:33:08.258Z,125
2017-10-20T08:34:08.545Z,120
2017-10-20T08:35:08.524Z,110
2017-10-20T08:36:08.495Z,100
2017-10-20T08:37:08.475Z,90
2017-10-20T08:38:08.446Z,85
2017-10-20T08:39:08.431Z,85
2017-10-20T08:40:08.414Z,80
2017-10-20T08:41:08.399Z,75
2017-10-20T08:42:08.041Z,80
2017-10-20T08:43:08.345Z,100
2017-10-20T08:44:08.347Z,125
2017-10-20T08:45:08.335Z,135
2017-10-20T08:46:08.294Z,135
2017-10-20T08:47:08.278Z,135
2017-10-20T08:48:08.242Z,120
2017-10-20T08:49:08.219Z,105
2017-10-20T08:50:07.876Z,95
2017-10-20T08:51:08.191Z,95
2017-10-20T08:52:07.827Z,90
2017-10-20T08:53:07.800Z,90
2017-10-20T08:54:08.455Z,85
2017-10-20T08:55:07.770Z,85
2017-10-20T08:56:08.076Z,75
2017-10-20T08:57:08.055Z,65
2017-10-20T08:58:08.384Z,60
2017-10-20T08:59:08.029Z,60
2017-10-20T09:00:07.807Z,70
2017-10-20T09:01:08.017Z,75
2017-10-20T09:02:07.936Z,75
2017-10-20T09:03:07.952Z,70
2017-10-20T09:04:07.588Z,75
2017-10-20T09:05:07.911Z,65
2017-10-20T09:06:07.566Z,60
2017-10-20T09:07:07.507Z,60
2017-10-20T09:08:07.840Z,55
2017-10-20T09:09:07.469Z,40
2017-10-20T09:10:07.775Z,35
2017-10-20T09:11:07.769Z,35
2017-10-20T09:12:07.732Z,30
2017-10-20T09:13:07.359Z,35
2017-10-20T09:14:07.692Z,35
2017-10-20T09:15:07.655Z,45
2017-10-20T09:16:07.627Z,60
2017-10-20T09:17:06.984Z,70
2017-10-20T09:18:07.576Z,100
2017-10-20T09:19:07.242Z,130
2017-10-20T09:20:07.579Z,135
2017-10-20T09:21:07.213Z,115
2017-10-20T09:22:07.503Z,85
2017-10-20T09:23:07.477Z,65
2017-10-20T09:24:07.446Z,55
2017-10-20T09:25:07.109Z,25
2017-10-20T09:26:07.400Z,30
2017-10-20T09:27:07.382Z,25
2017-10-20T09:28:07.401Z,35
2017-10-20T09:29:07.340Z,50
2017-10-20T09:30:07.349Z,55
2017-10-20T09:31:06.973Z,60
2017-10-20T09:32:07.275Z,65
2017-10-20T09:33:07.267Z,70
2017-10-20T09:34:07.261Z,85
2017-10-20T09:35:07.220Z,90
2017-10-20T09:36:07.178Z,100
2017-10-20T09:37:07.172Z,130
2017-10-20T09:38:07.140Z,155
2017-10-20T09:39:07.112Z,160
2017-10-20T09:40:07.091Z,175
2017-10-20T09:41:06.743Z,160
2017-10-20T09:42:07.053Z,150
2017-10-20T09:43:07.027Z,140
2017-10-20T09:44:06.707Z,135
2017-10-20T09:45:07.017Z,125
2017-10-20T09:46:06.970Z,125
2017-10-20T09:47:06.944Z,130
2017-10-20T09:48:06.915Z,135
2017-10-20T09:49:06.925Z,155
2017-10-20T09:50:06.869Z,155
2017-10-20T09:51:06.868Z,155
2017-10-20T09:52:06.835Z,140
2017-10-20T09:53:06.816Z,115
2017-10-20T09:54:06.784Z,100
2017-10-20T09:55:06.780Z,95
2017-10-20T09:56:06.743Z,90
2017-10-20T09:57:06.721Z,95
2017-10-20T09:58:06.704Z,90
2017-10-20T09:59:06.691Z,90
2017-10-20T10:00:06.656Z,105
2017-10-20T10:01:06.827Z,130
2017-10-20T10:02:06.642Z,155
2017-10-20T10:03:06.587Z,125
2017-10-20T10:04:06.251Z,115
2017-10-20T10:05:06.220Z,105
2017-10-20T10:06:06.544Z,75
2017-10-20T10:07:06.178Z,75
2017-10-20T10:08:06.156Z,60
2017-10-20T10:09:06.136Z,35
2017-10-20T10:10:06.431Z,50
2017-10-20T10:11:06.405Z,75
2017-10-20T10:12:06.388Z,85
2017-10-20T10:13:06.364Z,100
2017-10-20T10:14:06.374Z,120
2017-10-20T10:15:06.321Z,130
2017-10-20T10:16:06.299Z,205
2017-10-20T10:17:05.957Z,260
2017-10-20T10:18:05.944Z,295
2017-10-20T10:19:06.233Z,290
2017-10-20T10:20:06.217Z,290
2017-10-20T10:21:06.213Z,275
2017-10-20T10:22:06.178Z,255
2017-10-20T10:23:06.164Z,235
2017-10-20T10:24:06.127Z,225
2017-10-20T10:25:05.787Z,225
2017-10-20T10:26:06.111Z,215
2017-10-20T10:27:06.055Z,220
2017-10-20T10:28:06.038Z,215
2017-10-20T10:29:06.036Z,210
2017-10-20T10:30:05.998Z,215
2017-10-20T10:31:05.649Z,245
2017-10-20T10:32:05.622Z,260
2017-10-20T10:33:05.934Z,265
2017-10-20T10:34:05.942Z,265
2017-10-20T10:35:05.886Z,260
2017-10-20T10:36:05.868Z,260
2017-10-20T10:37:05.847Z,265
2017-10-20T10:38:05.808Z,270
2017-10-20T10:39:05.823Z,260
2017-10-20T10:40:06.120Z,230
2017-10-20T10:41:05.810Z,190
2017-10-20T10:42:05.735Z,170
2017-10-20T10:43:05.748Z,160
2017-10-20T10:44:05.697Z,165
2017-10-20T10:45:05.684Z,190
2017-10-20T10:46:05.992Z,215
2017-10-20T10:47:05.634Z,230
2017-10-20T10:48:05.276Z,260
2017-10-20T10:49:05.577Z,275
2017-10-20T10:50:05.551Z,290
2017-10-20T10:51:05.548Z,300
2017-10-20T10:52:05.531Z,300
2017-10-20T10:53:05.502Z,295
2017-10-20T10:54:05.493Z,260
2017-10-20T10:55:05.476Z,245
2017-10-20T10:56:05.431Z,225
2017-10-20T10:57:05.762Z,215
2017-10-20T10:58:05.395Z,205
2017-10-20T10:59:05.040Z,205
2017-10-20T11:00:05.354Z,205
2017-10-20T11:01:05.354Z,210
2017-10-20T11:02:05.335Z,205
2017-10-20T11:03:05.037Z,200
2017-10-20T11:04:05.564Z,195
2017-10-20T11:05:05.350Z,185
2017-10-20T11:06:05.790Z,175
2017-10-20T11:07:05.255Z,175
2017-10-20T11:08:05.223Z,170
2017-10-20T11:09:05.205Z,155
2017-10-20T11:10:05.142Z,175
2017-10-20T11:11:05.137Z,195
2017-10-20T11:12:05.149Z,160
2017-10-20T11:13:05.075Z,160
2017-10-20T11:14:05.118Z,170
2017-10-20T11:15:04.422Z,170
2017-10-20T11:16:05.011Z,150
2017-10-20T11:17:04.990Z,170
2017-10-20T11:18:04.697Z,155
2017-10-20T11:19:04.629Z,140
2017-10-20T11:20:04.925Z,155
2017-10-20T11:21:04.604Z,160
2017-10-20T11:22:04.875Z,145
2017-10-20T11:23:04.538Z,180
2017-10-20T11:24:04.523Z,150
2017-10-20T11:25:04.814Z,140
2017-10-20T11:26:04.830Z,165
2017-10-20T11:27:04.782Z,155
2017-10-20T11:28:04.434Z,155
2017-10-20T11:29:04.730Z,145
2017-10-20T11:30:04.725Z,145
2017-10-20T11:31:04.372Z,145
2017-10-20T11:32:04.687Z,145
2017-10-20T11:33:04.630Z,140
2017-10-20T11:34:04.554Z,140
2017-10-20T11:35:04.603Z,145
2017-10-20T11:36:05.035Z,140
2017-10-20T11:37:04.554Z,140
2017-10-20T11:38:04.568Z,140
2017-10-20T11:39:04.511Z,140
2017-10-20T11:40:04.161Z,140
2017-10-20T11:41:04.489Z,140
2017-10-20T11:42:04.516Z,150
2017-10-20T11:43:04.436Z,145
2017-10-20T11:44:04.521Z,145
2017-10-20T11:45:04.053Z,150
2017-10-20T11:46:04.026Z,155
2017-10-20T11:47:04.035Z,150
2017-10-20T11:48:03.994Z,170
2017-10-20T11:49:04.300Z,190
2017-10-20T11:50:04.331Z,200
2017-10-20T11:51:04.336Z,205
2017-10-20T11:52:04.215Z,205
2017-10-20T11:53:04.528Z,185
2017-10-20T11:54:03.872Z,215
2017-10-20T11:55:03.873Z,235
2017-10-20T11:56:04.201Z,215
2017-10-20T11:57:03.793Z,175
2017-10-20T11:58:04.107Z,180
2017-10-20T11:59:04.057Z,215
2017-10-20T12:00:04.039Z,205
2017-10-20T12:01:04.059Z,220
2017-10-20T12:02:03.997Z,240
2017-10-20T12:03:03.981Z,215
2017-10-20T12:04:03.962Z,185
2017-10-20T12:05:03.953Z,210
2017-10-20T12:06:03.917Z,250
2017-10-20T12:07:03.889Z,280
2017-10-20T12:08:03.875Z,315
2017-10-20T12:09:03.283Z,270
2017-10-20T12:10:03.836Z,210
2017-10-20T12:11:03.814Z,175
2017-10-20T12:12:03.786Z,170
2017-10-20T12:13:03.805Z,195
2017-10-20T12:14:03.428Z,155
2017-10-20T12:15:03.403Z,180
2017-10-20T12:16:03.706Z,165
2017-10-20T12:17:03.724Z,140
2017-10-20T12:18:03.694Z,155
2017-10-20T12:19:03.639Z,130
2017-10-20T12:20:03.623Z,130
2017-10-20T12:21:03.580Z,130
2017-10-20T12:22:03.571Z,130
2017-10-20T12:23:03.549Z,125
2017-10-20T12:24:03.534Z,125
2017-10-20T12:25:03.508Z,125
2017-10-20T12:26:03.168Z,125
2017-10-20T12:27:03.468Z,125
2017-10-20T12:28:03.458Z,125
2017-10-20T12:29:03.417Z,125
2017-10-20T12:30:03.104Z,125
2017-10-20T12:31:03.377Z,125
2017-10-20T12:32:03.359Z,125
2017-10-20T12:33:03.347Z,130
2017-10-20T12:34:03.320Z,130
2017-10-20T12:35:03.294Z,145
2017-10-20T12:36:03.276Z,175
2017-10-20T12:37:03.258Z,180
2017-10-20T12:38:03.233Z,175
2017-10-20T12:39:03.216Z,160
2017-10-20T12:40:03.191Z,145
2017-10-20T12:41:03.160Z,135
2017-10-20T12:42:03.169Z,145
2017-10-20T12:43:02.800Z,140
2017-10-20T12:44:03.103Z,130
2017-10-20T12:45:03.463Z,160
2017-10-20T12:46:03.055Z,170
2017-10-20T12:47:03.035Z,200
2017-10-20T12:48:03.022Z,225
2017-10-20T12:49:03.010Z,230
2017-10-20T12:50:03.325Z,215
2017-10-20T12:51:02.947Z,200
2017-10-20T12:52:02.928Z,210
2017-10-20T12:53:02.598Z,210
2017-10-20T12:54:02.875Z,225
2017-10-20T12:55:02.882Z,235
2017-10-20T12:56:02.847Z,225
2017-10-20T12:57:02.187Z,230
2017-10-20T12:58:02.803Z,235
2017-10-20T12:59:02.459Z,210
2017-10-20T13:00:02.760Z,195
2017-10-20T13:01:02.409Z,185
2017-10-20T13:02:02.706Z,170
2017-10-20T13:03:02.690Z,190
2017-10-20T13:04:02.683Z,225
2017-10-20T13:05:02.333Z,215
2017-10-20T13:06:02.639Z,215
2017-10-20T13:07:02.610Z,205
2017-10-20T13:08:02.606Z,225
2017-10-20T13:09:02.574Z,220
2017-10-20T13:10:02.551Z,215
2017-10-20T13:11:02.542Z,205
2017-10-20T13:12:02.645Z,195
2017-10-20T13:13:02.474Z,175
2017-10-20T13:14:02.467Z,165
2017-10-20T13:15:02.443Z,170
2017-10-20T13:16:02.438Z,165
2017-10-20T13:17:02.400Z,140
2017-10-20T13:18:02.054Z,120
2017-10-20T13:19:02.485Z,115
2017-10-20T13:20:02.032Z,135
2017-10-20T13:21:02.333Z,135
2017-10-20T13:22:02.286Z,115
2017-10-20T13:23:02.282Z,90
2017-10-20T13:24:01.932Z,70
2017-10-20T13:25:02.225Z,85
2017-10-20T13:26:02.214Z,100
2017-10-20T13:27:02.187Z,95
2017-10-20T13:28:02.167Z,75
2017-10-20T13:29:02.489Z,90
2017-10-20T13:30:01.806Z,100
2017-10-20T13:31:02.108Z,100
2017-10-20T13:32:01.782Z,100
2017-10-20T13:33:01.486Z,100
2017-10-20T13:34:02.028Z,90
2017-10-20T13:35:02.035Z,110
2017-10-20T13:36:01.988Z,145
2017-10-20T13:37:01.976Z,130
2017-10-20T13:38:01.954Z,95
2017-10-20T13:39:01.943Z,75
2017-10-20T13:40:01.964Z,55
2017-10-20T13:41:01.885Z,55
2017-10-20T13:42:01.857Z,60
2017-10-20T13:43:01.842Z,70
2017-10-20T13:44:01.815Z,80
2017-10-20T13:45:01.827Z,90
2017-10-20T13:46:01.142Z,80
2017-10-20T13:47:01.123Z,70
2017-10-20T13:48:01.096Z,65
2017-10-20T13:49:01.725Z,60
2017-10-20T13:50:01.681Z,60
2017-10-20T13:51:01.357Z,60
2017-10-20T13:52:01.654Z,60
2017-10-20T13:53:01.012Z,55
2017-10-20T13:54:01.611Z,60
2017-10-20T13:55:01.597Z,60
2017-10-20T13:56:00.409Z,65
2017-10-20T13:57:01.047Z,65
2017-10-20T13:58:00.488Z,60
2017-10-20T13:59:00.744Z,60
2017-10-20T14:00:00.448Z,60
2017-10-20T14:01:01.007Z,65
2017-10-20T14:02:00.744Z,75
2017-10-20T14:03:00.625Z,80
2017-10-20T14:04:00.600Z,80
2017-10-20T14:05:00.333Z,90
2017-10-20T14:06:00.533Z,105
2017-10-20T14:07:00.494Z,105
2017-10-20T14:08:00.206Z,105
2017-10-20T14:09:00.230Z,110
2017-10-20T14:10:00.285Z,110
2017-10-20T14:11:00.490Z,110
2017-10-20T14:12:00.646Z,95
2017-10-20T14:13:00.565Z,85
2017-10-20T14:14:00.192Z,80
2017-10-20T14:15:00.767Z,75
2017-10-20T14:16:00.648Z,80
2017-10-20T14:17:00.102Z,85
2017-10-20T14:18:00.190Z,85
2017-10-20T14:19:00.409Z,75
2017-10-20T14:20:00.017Z,70